sensor_id;sensor_type;location;lat;lon;timestamp;temperature;humidity
3067;DHT22;1544;48.834;9.194;2024-03-25T00:01:52;7.00;72.30
3067;DHT22;1544;48.834;9.194;2024-03-25T00:04:27;6.90;69.30
3067;DHT22;1544;48.834;9.194;2024-03-25T00:07:02;7.00;71.60
3067;DHT22;1544;48.834;9.194;2024-03-25T00:09:37;7.00;72.40
3067;DHT22;1544;48.834;9.194;2024-03-25T00:12:12;7.00;71.80
3067;DHT22;1544;48.834;9.194;2024-03-25T00:14:47;7.00;69.80
3067;DHT22;1544;48.834;9.194;2024-03-25T00:17:22;6.90;67.60
3067;DHT22;1544;48.834;9.194;2024-03-25T00:19:57;7.00;68.60
3067;DHT22;1544;48.834;9.194;2024-03-25T00:22:32;6.90;68.60
3067;DHT22;1544;48.834;9.194;2024-03-25T00:25:08;7.00;70.20
3067;DHT22;1544;48.834;9.194;2024-03-25T00:27:43;7.00;69.10
3067;DHT22;1544;48.834;9.194;2024-03-25T00:30:18;7.00;70.70
3067;DHT22;1544;48.834;9.194;2024-03-25T00:32:54;7.00;72.50
3067;DHT22;1544;48.834;9.194;2024-03-25T00:35:29;7.00;71.50
3067;DHT22;1544;48.834;9.194;2024-03-25T00:38:05;6.90;66.50
3067;DHT22;1544;48.834;9.194;2024-03-25T00:40:41;6.90;66.90
3067;DHT22;1544;48.834;9.194;2024-03-25T00:43:16;6.90;69.20
3067;DHT22;1544;48.834;9.194;2024-03-25T00:45:52;6.90;67.40
3067;DHT22;1544;48.834;9.194;2024-03-25T00:48:27;6.90;67.40
3067;DHT22;1544;48.834;9.194;2024-03-25T00:51:02;6.90;68.40
3067;DHT22;1544;48.834;9.194;2024-03-25T00:53:37;6.90;66.60
3067;DHT22;1544;48.834;9.194;2024-03-25T00:56:12;6.90;68.50
3067;DHT22;1544;48.834;9.194;2024-03-25T00:58:47;6.80;69.50
3067;DHT22;1544;48.834;9.194;2024-03-25T01:01:22;6.80;68.20
3067;DHT22;1544;48.834;9.194;2024-03-25T01:03:57;6.70;67.50
3067;DHT22;1544;48.834;9.194;2024-03-25T01:06:33;6.70;68.90
3067;DHT22;1544;48.834;9.194;2024-03-25T01:09:08;6.70;68.50
3067;DHT22;1544;48.834;9.194;2024-03-25T01:11:44;6.60;68.40
3067;DHT22;1544;48.834;9.194;2024-03-25T01:14:19;6.60;68.00
3067;DHT22;1544;48.834;9.194;2024-03-25T01:16:54;6.50;66.80
3067;DHT22;1544;48.834;9.194;2024-03-25T01:19:30;6.50;66.10
3067;DHT22;1544;48.834;9.194;2024-03-25T01:22:05;6.50;67.60
3067;DHT22;1544;48.834;9.194;2024-03-25T01:24:40;6.50;67.10
3067;DHT22;1544;48.834;9.194;2024-03-25T01:27:15;6.50;66.90
3067;DHT22;1544;48.834;9.194;2024-03-25T01:29:50;6.50;67.70
3067;DHT22;1544;48.834;9.194;2024-03-25T01:32:25;6.50;68.10
3067;DHT22;1544;48.834;9.194;2024-03-25T01:35:00;6.50;69.80
3067;DHT22;1544;48.834;9.194;2024-03-25T01:37:35;6.50;69.70
3067;DHT22;1544;48.834;9.194;2024-03-25T01:40:10;6.50;70.10
3067;DHT22;1544;48.834;9.194;2024-03-25T01:43:01;6.50;70.40
3067;DHT22;1544;48.834;9.194;2024-03-25T01:45:37;6.50;70.80
3067;DHT22;1544;48.834;9.194;2024-03-25T01:48:12;6.50;71.20
3067;DHT22;1544;48.834;9.194;2024-03-25T01:50:47;6.50;70.80
3067;DHT22;1544;48.834;9.194;2024-03-25T01:53:23;6.50;68.50
3067;DHT22;1544;48.834;9.194;2024-03-25T01:55:59;6.50;71.30
3067;DHT22;1544;48.834;9.194;2024-03-25T01:58:34;6.60;71.60
3067;DHT22;1544;48.834;9.194;2024-03-25T02:01:11;6.60;72.70
3067;DHT22;1544;48.834;9.194;2024-03-25T02:03:48;6.60;73.90
3067;DHT22;1544;48.834;9.194;2024-03-25T02:06:26;6.60;73.30
3067;DHT22;1544;48.834;9.194;2024-03-25T02:09:02;6.60;72.70
3067;DHT22;1544;48.834;9.194;2024-03-25T02:11:41;6.60;72.00
3067;DHT22;1544;48.834;9.194;2024-03-25T02:14:16;6.60;74.10
3067;DHT22;1544;48.834;9.194;2024-03-25T02:16:52;6.60;74.00
3067;DHT22;1544;48.834;9.194;2024-03-25T02:19:27;6.60;75.00
3067;DHT22;1544;48.834;9.194;2024-03-25T02:22:03;6.60;75.00
3067;DHT22;1544;48.834;9.194;2024-03-25T02:24:38;6.70;75.10
3067;DHT22;1544;48.834;9.194;2024-03-25T02:27:14;6.70;74.90
3067;DHT22;1544;48.834;9.194;2024-03-25T02:29:49;6.70;74.60
3067;DHT22;1544;48.834;9.194;2024-03-25T02:32:24;6.60;74.50
3067;DHT22;1544;48.834;9.194;2024-03-25T02:35:01;6.70;74.40
3067;DHT22;1544;48.834;9.194;2024-03-25T02:37:39;6.70;74.50
3067;DHT22;1544;48.834;9.194;2024-03-25T02:40:14;6.70;74.70
3067;DHT22;1544;48.834;9.194;2024-03-25T02:42:49;6.70;75.30
3067;DHT22;1544;48.834;9.194;2024-03-25T02:45:24;6.70;75.90
3067;DHT22;1544;48.834;9.194;2024-03-25T02:47:59;6.70;76.00
3067;DHT22;1544;48.834;9.194;2024-03-25T02:50:34;6.80;76.30
3067;DHT22;1544;48.834;9.194;2024-03-25T02:53:09;6.80;76.40
3067;DHT22;1544;48.834;9.194;2024-03-25T02:55:44;6.80;76.50
3067;DHT22;1544;48.834;9.194;2024-03-25T02:58:19;6.80;77.10
3067;DHT22;1544;48.834;9.194;2024-03-25T03:00:54;6.80;75.70
3067;DHT22;1544;48.834;9.194;2024-03-25T03:03:29;6.70;71.60
3067;DHT22;1544;48.834;9.194;2024-03-25T03:06:05;6.70;72.50
3067;DHT22;1544;48.834;9.194;2024-03-25T03:08:40;6.70;72.20
3067;DHT22;1544;48.834;9.194;2024-03-25T03:11:15;6.70;73.80
3067;DHT22;1544;48.834;9.194;2024-03-25T03:13:50;6.80;75.70
3067;DHT22;1544;48.834;9.194;2024-03-25T03:16:26;6.80;75.70
3067;DHT22;1544;48.834;9.194;2024-03-25T03:19:01;6.70;72.50
3067;DHT22;1544;48.834;9.194;2024-03-25T03:21:36;6.80;74.70
3067;DHT22;1544;48.834;9.194;2024-03-25T03:24:11;6.80;72.80
3067;DHT22;1544;48.834;9.194;2024-03-25T03:26:46;6.80;73.60
3067;DHT22;1544;48.834;9.194;2024-03-25T03:29:21;6.80;74.20
3067;DHT22;1544;48.834;9.194;2024-03-25T03:31:56;6.80;73.80
3067;DHT22;1544;48.834;9.194;2024-03-25T03:34:31;6.80;73.50
3067;DHT22;1544;48.834;9.194;2024-03-25T03:37:06;6.80;74.20
3067;DHT22;1544;48.834;9.194;2024-03-25T03:39:41;6.80;74.60
3067;DHT22;1544;48.834;9.194;2024-03-25T03:42:17;6.80;75.00
3067;DHT22;1544;48.834;9.194;2024-03-25T03:44:51;6.80;75.60
3067;DHT22;1544;48.834;9.194;2024-03-25T03:47:26;6.80;75.20
3067;DHT22;1544;48.834;9.194;2024-03-25T03:50:01;6.70;72.40
3067;DHT22;1544;48.834;9.194;2024-03-25T03:52:36;6.70;73.70
3067;DHT22;1544;48.834;9.194;2024-03-25T03:55:11;6.80;74.20
3067;DHT22;1544;48.834;9.194;2024-03-25T03:57:46;6.70;72.00
3067;DHT22;1544;48.834;9.194;2024-03-25T04:00:21;6.70;69.20
3067;DHT22;1544;48.834;9.194;2024-03-25T04:02:56;6.70;70.70
3067;DHT22;1544;48.834;9.194;2024-03-25T04:05:31;6.70;71.80
3067;DHT22;1544;48.834;9.194;2024-03-25T04:08:06;6.70;68.10
3067;DHT22;1544;48.834;9.194;2024-03-25T04:10:44;6.60;65.10
3067;DHT22;1544;48.834;9.194;2024-03-25T04:13:19;6.60;62.70
3067;DHT22;1544;48.834;9.194;2024-03-25T04:16:00;6.60;64.50
3067;DHT22;1544;48.834;9.194;2024-03-25T04:18:39;6.70;64.10
3067;DHT22;1544;48.834;9.194;2024-03-25T04:21:16;6.70;64.80
3067;DHT22;1544;48.834;9.194;2024-03-25T04:23:51;6.70;63.90
3067;DHT22;1544;48.834;9.194;2024-03-25T04:26:27;6.70;67.30
3067;DHT22;1544;48.834;9.194;2024-03-25T04:29:02;6.70;68.60
3067;DHT22;1544;48.834;9.194;2024-03-25T04:31:37;6.70;67.00
3067;DHT22;1544;48.834;9.194;2024-03-25T04:34:12;6.60;66.60
3067;DHT22;1544;48.834;9.194;2024-03-25T04:36:47;6.60;67.40
3067;DHT22;1544;48.834;9.194;2024-03-25T04:39:22;6.60;64.90
3067;DHT22;1544;48.834;9.194;2024-03-25T04:41:57;6.50;63.20
3067;DHT22;1544;48.834;9.194;2024-03-25T04:44:32;6.50;62.40
3067;DHT22;1544;48.834;9.194;2024-03-25T04:47:07;6.40;61.10
3067;DHT22;1544;48.834;9.194;2024-03-25T04:49:43;6.50;64.50
3067;DHT22;1544;48.834;9.194;2024-03-25T04:52:18;6.40;61.60
3067;DHT22;1544;48.834;9.194;2024-03-25T04:54:53;6.40;64.10
3067;DHT22;1544;48.834;9.194;2024-03-25T04:57:28;6.40;64.50
3067;DHT22;1544;48.834;9.194;2024-03-25T05:00:03;6.40;65.50
3067;DHT22;1544;48.834;9.194;2024-03-25T05:02:40;6.40;66.00
3067;DHT22;1544;48.834;9.194;2024-03-25T05:05:15;6.40;67.90
3067;DHT22;1544;48.834;9.194;2024-03-25T05:07:50;6.40;67.30
3067;DHT22;1544;48.834;9.194;2024-03-25T05:10:25;6.40;68.60
3067;DHT22;1544;48.834;9.194;2024-03-25T05:13:00;6.40;69.10
3067;DHT22;1544;48.834;9.194;2024-03-25T05:15:34;6.40;69.40
3067;DHT22;1544;48.834;9.194;2024-03-25T05:18:09;6.30;70.30
3067;DHT22;1544;48.834;9.194;2024-03-25T05:20:45;6.30;71.30
3067;DHT22;1544;48.834;9.194;2024-03-25T05:23:20;6.30;71.30
3067;DHT22;1544;48.834;9.194;2024-03-25T05:25:55;6.60;72.00
3067;DHT22;1544;48.834;9.194;2024-03-25T05:28:30;6.20;72.00
3067;DHT22;1544;48.834;9.194;2024-03-25T05:31:09;6.10;72.40
3067;DHT22;1544;48.834;9.194;2024-03-25T05:33:44;6.10;72.80
3067;DHT22;1544;48.834;9.194;2024-03-25T05:36:21;6.10;73.00
3067;DHT22;1544;48.834;9.194;2024-03-25T05:38:56;6.10;73.80
3067;DHT22;1544;48.834;9.194;2024-03-25T05:41:31;6.10;74.30
3067;DHT22;1544;48.834;9.194;2024-03-25T05:44:06;6.00;74.90
3067;DHT22;1544;48.834;9.194;2024-03-25T05:46:41;6.00;75.00
3067;DHT22;1544;48.834;9.194;2024-03-25T05:49:16;6.00;75.60
3067;DHT22;1544;48.834;9.194;2024-03-25T05:51:52;6.00;76.10
3067;DHT22;1544;48.834;9.194;2024-03-25T05:54:27;6.00;76.70
3067;DHT22;1544;48.834;9.194;2024-03-25T05:57:06;6.00;78.00
3067;DHT22;1544;48.834;9.194;2024-03-25T05:59:41;6.00;77.60
3067;DHT22;1544;48.834;9.194;2024-03-25T06:02:17;6.00;77.80
3067;DHT22;1544;48.834;9.194;2024-03-25T06:04:53;6.10;78.30
3067;DHT22;1544;48.834;9.194;2024-03-25T06:07:31;6.20;78.60
3067;DHT22;1544;48.834;9.194;2024-03-25T06:10:06;6.10;79.10
3067;DHT22;1544;48.834;9.194;2024-03-25T06:12:42;6.20;79.10
3067;DHT22;1544;48.834;9.194;2024-03-25T06:15:17;6.20;78.90
3067;DHT22;1544;48.834;9.194;2024-03-25T06:17:52;6.20;78.70
3067;DHT22;1544;48.834;9.194;2024-03-25T06:20:27;6.20;78.70
3067;DHT22;1544;48.834;9.194;2024-03-25T06:23:02;6.20;78.80
3067;DHT22;1544;48.834;9.194;2024-03-25T06:25:37;6.20;78.90
3067;DHT22;1544;48.834;9.194;2024-03-25T06:28:12;6.20;79.00
3067;DHT22;1544;48.834;9.194;2024-03-25T06:30:48;6.20;79.10
3067;DHT22;1544;48.834;9.194;2024-03-25T06:33:44;6.20;79.20
3067;DHT22;1544;48.834;9.194;2024-03-25T06:36:38;6.20;79.20
3067;DHT22;1544;48.834;9.194;2024-03-25T06:39:13;6.20;79.20
3067;DHT22;1544;48.834;9.194;2024-03-25T06:41:48;6.20;79.20
3067;DHT22;1544;48.834;9.194;2024-03-25T06:44:24;6.20;79.30
3067;DHT22;1544;48.834;9.194;2024-03-25T06:46:59;6.20;79.30
3067;DHT22;1544;48.834;9.194;2024-03-25T06:49:34;6.30;79.60
3067;DHT22;1544;48.834;9.194;2024-03-25T06:52:10;6.30;79.80
3067;DHT22;1544;48.834;9.194;2024-03-25T06:54:46;6.30;79.70
3067;DHT22;1544;48.834;9.194;2024-03-25T06:57:21;6.30;80.70
3067;DHT22;1544;48.834;9.194;2024-03-25T06:59:56;6.40;80.10
3067;DHT22;1544;48.834;9.194;2024-03-25T07:02:32;6.30;77.00
3067;DHT22;1544;48.834;9.194;2024-03-25T07:05:07;6.40;77.70
3067;DHT22;1544;48.834;9.194;2024-03-25T07:07:43;6.50;79.30
3067;DHT22;1544;48.834;9.194;2024-03-25T07:10:17;6.60;80.60
3067;DHT22;1544;48.834;9.194;2024-03-25T07:12:54;6.70;80.10
3067;DHT22;1544;48.834;9.194;2024-03-25T07:15:29;6.80;80.80
3067;DHT22;1544;48.834;9.194;2024-03-25T07:18:05;6.90;80.80
3067;DHT22;1544;48.834;9.194;2024-03-25T07:20:41;6.90;79.70
3067;DHT22;1544;48.834;9.194;2024-03-25T07:23:16;7.00;76.50
3067;DHT22;1544;48.834;9.194;2024-03-25T07:25:51;6.90;68.70
3067;DHT22;1544;48.834;9.194;2024-03-25T07:28:26;6.90;68.80
3067;DHT22;1544;48.834;9.194;2024-03-25T07:31:01;7.10;74.10
3067;DHT22;1544;48.834;9.194;2024-03-25T07:33:37;7.20;72.60
3067;DHT22;1544;48.834;9.194;2024-03-25T07:36:12;7.30;73.80
3067;DHT22;1544;48.834;9.194;2024-03-25T07:38:47;7.30;68.40
3067;DHT22;1544;48.834;9.194;2024-03-25T07:41:22;7.30;60.80
3067;DHT22;1544;48.834;9.194;2024-03-25T07:43:57;7.30;57.70
3067;DHT22;1544;48.834;9.194;2024-03-25T07:46:32;7.40;61.20
3067;DHT22;1544;48.834;9.194;2024-03-25T07:49:07;7.40;57.60
3067;DHT22;1544;48.834;9.194;2024-03-25T07:51:43;7.40;53.60
3067;DHT22;1544;48.834;9.194;2024-03-25T07:54:18;7.50;55.10
3067;DHT22;1544;48.834;9.194;2024-03-25T07:56:54;7.60;56.20
3067;DHT22;1544;48.834;9.194;2024-03-25T07:59:30;7.70;59.00
3067;DHT22;1544;48.834;9.194;2024-03-25T08:02:05;7.70;48.50
3067;DHT22;1544;48.834;9.194;2024-03-25T08:04:40;7.80;50.40
3067;DHT22;1544;48.834;9.194;2024-03-25T08:07:15;8.00;53.40
3067;DHT22;1544;48.834;9.194;2024-03-25T08:09:50;8.10;53.40
3067;DHT22;1544;48.834;9.194;2024-03-25T08:12:25;8.30;56.80
3067;DHT22;1544;48.834;9.194;2024-03-25T08:15:00;8.40;56.30
3067;DHT22;1544;48.834;9.194;2024-03-25T08:17:35;8.50;56.40
3067;DHT22;1544;48.834;9.194;2024-03-25T08:20:11;8.70;52.90
3067;DHT22;1544;48.834;9.194;2024-03-25T08:22:48;8.70;50.20
3067;DHT22;1544;48.834;9.194;2024-03-25T08:25:23;8.80;47.40
3067;DHT22;1544;48.834;9.194;2024-03-25T08:27:59;8.90;50.50
3067;DHT22;1544;48.834;9.194;2024-03-25T08:30:34;9.00;50.10
3067;DHT22;1544;48.834;9.194;2024-03-25T08:33:10;9.10;46.90
3067;DHT22;1544;48.834;9.194;2024-03-25T08:35:45;9.10;43.10
3067;DHT22;1544;48.834;9.194;2024-03-25T08:38:20;9.20;39.80
3067;DHT22;1544;48.834;9.194;2024-03-25T08:40:55;9.30;37.30
3067;DHT22;1544;48.834;9.194;2024-03-25T08:43:31;9.40;40.10
3067;DHT22;1544;48.834;9.194;2024-03-25T08:46:06;9.50;37.70
3067;DHT22;1544;48.834;9.194;2024-03-25T08:48:41;9.60;38.30
3067;DHT22;1544;48.834;9.194;2024-03-25T08:51:17;9.60;41.60
3067;DHT22;1544;48.834;9.194;2024-03-25T08:53:52;9.70;42.20
3067;DHT22;1544;48.834;9.194;2024-03-25T08:56:27;9.80;38.70
3067;DHT22;1544;48.834;9.194;2024-03-25T08:59:02;9.80;36.90
3067;DHT22;1544;48.834;9.194;2024-03-25T09:01:37;9.80;36.90
3067;DHT22;1544;48.834;9.194;2024-03-25T09:04:13;9.80;33.40
3067;DHT22;1544;48.834;9.194;2024-03-25T09:06:49;9.90;40.90
3067;DHT22;1544;48.834;9.194;2024-03-25T09:09:24;9.80;42.40
3067;DHT22;1544;48.834;9.194;2024-03-25T09:12:18;9.70;39.10
3067;DHT22;1544;48.834;9.194;2024-03-25T09:14:52;9.70;38.80
3067;DHT22;1544;48.834;9.194;2024-03-25T09:17:28;9.70;37.00
3067;DHT22;1544;48.834;9.194;2024-03-25T09:20:03;9.50;33.90
3067;DHT22;1544;48.834;9.194;2024-03-25T09:22:43;9.60;40.10
3067;DHT22;1544;48.834;9.194;2024-03-25T09:25:19;9.60;38.30
3067;DHT22;1544;48.834;9.194;2024-03-25T09:27:54;9.60;40.40
3067;DHT22;1544;48.834;9.194;2024-03-25T09:30:28;9.60;38.20
3067;DHT22;1544;48.834;9.194;2024-03-25T09:33:04;9.60;37.00
3067;DHT22;1544;48.834;9.194;2024-03-25T09:35:39;9.50;35.30
3067;DHT22;1544;48.834;9.194;2024-03-25T09:38:15;9.60;34.90
3067;DHT22;1544;48.834;9.194;2024-03-25T09:40:52;9.70;38.60
3067;DHT22;1544;48.834;9.194;2024-03-25T09:43:43;9.70;36.50
3067;DHT22;1544;48.834;9.194;2024-03-25T09:46:21;9.80;37.40
3067;DHT22;1544;48.834;9.194;2024-03-25T09:48:57;9.90;38.50
3067;DHT22;1544;48.834;9.194;2024-03-25T09:51:32;9.90;38.80
3067;DHT22;1544;48.834;9.194;2024-03-25T09:54:07;10.00;37.60
3067;DHT22;1544;48.834;9.194;2024-03-25T09:56:42;10.20;37.10
3067;DHT22;1544;48.834;9.194;2024-03-25T09:59:18;10.30;35.00
3067;DHT22;1544;48.834;9.194;2024-03-25T10:01:54;10.40;37.20
3067;DHT22;1544;48.834;9.194;2024-03-25T10:04:29;10.50;37.80
3067;DHT22;1544;48.834;9.194;2024-03-25T10:07:04;10.60;37.40
3067;DHT22;1544;48.834;9.194;2024-03-25T10:09:39;10.80;35.50
3067;DHT22;1544;48.834;9.194;2024-03-25T10:12:14;10.90;36.70
3067;DHT22;1544;48.834;9.194;2024-03-25T10:14:49;11.10;37.70
3067;DHT22;1544;48.834;9.194;2024-03-25T10:17:24;11.30;37.60
3067;DHT22;1544;48.834;9.194;2024-03-25T10:19:59;11.30;34.60
3067;DHT22;1544;48.834;9.194;2024-03-25T10:22:45;11.40;32.90
3067;DHT22;1544;48.834;9.194;2024-03-25T10:25:28;11.90;32.00
3067;DHT22;1544;48.834;9.194;2024-03-25T10:28:05;11.50;31.00
3067;DHT22;1544;48.834;9.194;2024-03-25T10:30:41;11.60;33.50
3067;DHT22;1544;48.834;9.194;2024-03-25T10:33:17;11.60;32.20
3067;DHT22;1544;48.834;9.194;2024-03-25T10:35:52;11.70;31.70
3067;DHT22;1544;48.834;9.194;2024-03-25T10:38:28;11.90;35.20
3067;DHT22;1544;48.834;9.194;2024-03-25T10:41:04;12.00;34.90
3067;DHT22;1544;48.834;9.194;2024-03-25T10:43:41;12.10;35.70
3067;DHT22;1544;48.834;9.194;2024-03-25T10:46:18;12.20;33.10
3067;DHT22;1544;48.834;9.194;2024-03-25T10:49:09;12.20;32.50
3067;DHT22;1544;48.834;9.194;2024-03-25T10:51:50;12.30;33.20
3067;DHT22;1544;48.834;9.194;2024-03-25T10:54:26;12.50;35.50
3067;DHT22;1544;48.834;9.194;2024-03-25T10:57:04;12.60;36.30
3067;DHT22;1544;48.834;9.194;2024-03-25T10:59:42;12.70;35.90
3067;DHT22;1544;48.834;9.194;2024-03-25T11:02:18;12.80;32.80
3067;DHT22;1544;48.834;9.194;2024-03-25T11:04:54;12.80;33.60
3067;DHT22;1544;48.834;9.194;2024-03-25T11:07:31;12.90;33.50
3067;DHT22;1544;48.834;9.194;2024-03-25T11:10:08;13.00;32.50
3067;DHT22;1544;48.834;9.194;2024-03-25T11:12:43;13.10;31.10
3067;DHT22;1544;48.834;9.194;2024-03-25T11:15:20;13.00;28.20
3067;DHT22;1544;48.834;9.194;2024-03-25T11:17:58;13.10;32.90
3067;DHT22;1544;48.834;9.194;2024-03-25T11:20:33;13.10;34.30
3067;DHT22;1544;48.834;9.194;2024-03-25T11:23:17;13.20;31.60
3067;DHT22;1544;48.834;9.194;2024-03-25T11:25:56;13.30;34.80
3067;DHT22;1544;48.834;9.194;2024-03-25T11:28:31;13.30;33.50
3067;DHT22;1544;48.834;9.194;2024-03-25T11:31:10;13.40;33.70
3067;DHT22;1544;48.834;9.194;2024-03-25T11:33:45;13.40;32.60
3067;DHT22;1544;48.834;9.194;2024-03-25T11:36:21;13.50;35.70
3067;DHT22;1544;48.834;9.194;2024-03-25T11:39:01;13.40;32.70
3067;DHT22;1544;48.834;9.194;2024-03-25T11:41:43;13.50;34.90
3067;DHT22;1544;48.834;9.194;2024-03-25T11:44:19;13.50;32.60
3067;DHT22;1544;48.834;9.194;2024-03-25T11:46:54;13.70;32.90
3067;DHT22;1544;48.834;9.194;2024-03-25T11:49:30;13.80;31.20
3067;DHT22;1544;48.834;9.194;2024-03-25T11:52:06;14.00;31.40
3067;DHT22;1544;48.834;9.194;2024-03-25T11:54:41;14.20;30.00
3067;DHT22;1544;48.834;9.194;2024-03-25T11:57:16;14.30;32.10
3067;DHT22;1544;48.834;9.194;2024-03-25T11:59:51;14.40;29.70
3067;DHT22;1544;48.834;9.194;2024-03-25T12:02:26;14.50;31.40
3067;DHT22;1544;48.834;9.194;2024-03-25T12:05:01;14.50;31.90
3067;DHT22;1544;48.834;9.194;2024-03-25T12:07:36;14.50;30.90
3067;DHT22;1544;48.834;9.194;2024-03-25T12:10:11;14.60;31.00
3067;DHT22;1544;48.834;9.194;2024-03-25T12:13:05;14.70;30.20
3067;DHT22;1544;48.834;9.194;2024-03-25T12:15:42;15.00;33.10
3067;DHT22;1544;48.834;9.194;2024-03-25T12:18:18;15.20;32.40
3067;DHT22;1544;48.834;9.194;2024-03-25T12:20:57;15.20;30.20
3067;DHT22;1544;48.834;9.194;2024-03-25T12:23:32;15.30;32.20
3067;DHT22;1544;48.834;9.194;2024-03-25T12:26:08;15.30;30.30
3067;DHT22;1544;48.834;9.194;2024-03-25T12:28:43;15.60;30.90
3067;DHT22;1544;48.834;9.194;2024-03-25T12:31:18;15.90;34.70
3067;DHT22;1544;48.834;9.194;2024-03-25T12:33:53;16.30;30.60
3067;DHT22;1544;48.834;9.194;2024-03-25T12:36:29;16.80;31.70
3067;DHT22;1544;48.834;9.194;2024-03-25T12:39:18;17.20;32.40
3067;DHT22;1544;48.834;9.194;2024-03-25T12:41:56;17.50;28.20
3067;DHT22;1544;48.834;9.194;2024-03-25T12:44:32;17.70;29.60
3067;DHT22;1544;48.834;9.194;2024-03-25T12:47:07;17.80;28.90
3067;DHT22;1544;48.834;9.194;2024-03-25T12:49:42;18.00;30.40
3067;DHT22;1544;48.834;9.194;2024-03-25T12:52:17;18.10;29.60
3067;DHT22;1544;48.834;9.194;2024-03-25T12:54:52;18.30;27.40
3067;DHT22;1544;48.834;9.194;2024-03-25T12:57:27;18.50;28.10
3067;DHT22;1544;48.834;9.194;2024-03-25T13:00:03;18.80;30.40
3067;DHT22;1544;48.834;9.194;2024-03-25T13:02:39;19.00;31.10
3067;DHT22;1544;48.834;9.194;2024-03-25T13:05:14;19.20;28.30
3067;DHT22;1544;48.834;9.194;2024-03-25T13:07:49;19.40;28.60
3067;DHT22;1544;48.834;9.194;2024-03-25T13:10:24;19.60;30.00
3067;DHT22;1544;48.834;9.194;2024-03-25T13:13:01;19.70;27.70
3067;DHT22;1544;48.834;9.194;2024-03-25T13:15:37;19.80;28.80
3067;DHT22;1544;48.834;9.194;2024-03-25T13:18:12;19.90;26.20
3067;DHT22;1544;48.834;9.194;2024-03-25T13:20:47;20.10;27.40
3067;DHT22;1544;48.834;9.194;2024-03-25T13:23:22;20.10;26.20
3067;DHT22;1544;48.834;9.194;2024-03-25T13:25:57;20.30;27.00
3067;DHT22;1544;48.834;9.194;2024-03-25T13:28:32;20.50;26.50
3067;DHT22;1544;48.834;9.194;2024-03-25T13:31:07;20.60;25.90
3067;DHT22;1544;48.834;9.194;2024-03-25T13:33:42;20.70;25.60
3067;DHT22;1544;48.834;9.194;2024-03-25T13:36:18;20.80;27.00
3067;DHT22;1544;48.834;9.194;2024-03-25T13:38:53;20.90;27.00
3067;DHT22;1544;48.834;9.194;2024-03-25T13:41:28;21.10;27.70
3067;DHT22;1544;48.834;9.194;2024-03-25T13:44:03;21.30;26.30
3067;DHT22;1544;48.834;9.194;2024-03-25T13:46:38;21.50;28.10
3067;DHT22;1544;48.834;9.194;2024-03-25T13:49:14;21.60;28.10
3067;DHT22;1544;48.834;9.194;2024-03-25T13:51:56;21.70;28.10
3067;DHT22;1544;48.834;9.194;2024-03-25T13:54:33;21.90;28.30
3067;DHT22;1544;48.834;9.194;2024-03-25T13:57:08;22.00;28.40
3067;DHT22;1544;48.834;9.194;2024-03-25T13:59:43;22.00;29.60
3067;DHT22;1544;48.834;9.194;2024-03-25T14:02:18;22.00;27.50
3067;DHT22;1544;48.834;9.194;2024-03-25T14:04:53;22.10;24.70
3067;DHT22;1544;48.834;9.194;2024-03-25T14:07:28;22.30;27.20
3067;DHT22;1544;48.834;9.194;2024-03-25T14:10:04;22.40;28.80
3067;DHT22;1544;48.834;9.194;2024-03-25T14:12:40;22.40;27.00
3067;DHT22;1544;48.834;9.194;2024-03-25T14:15:16;22.40;26.60
3067;DHT22;1544;48.834;9.194;2024-03-25T14:17:51;22.60;26.90
3067;DHT22;1544;48.834;9.194;2024-03-25T14:20:27;22.50;27.70
3067;DHT22;1544;48.834;9.194;2024-03-25T14:23:02;22.50;27.30
3067;DHT22;1544;48.834;9.194;2024-03-25T14:25:37;22.60;27.70
3067;DHT22;1544;48.834;9.194;2024-03-25T14:28:13;22.60;24.90
3067;DHT22;1544;48.834;9.194;2024-03-25T14:30:49;22.60;23.60
3067;DHT22;1544;48.834;9.194;2024-03-25T14:33:24;22.70;26.90
3067;DHT22;1544;48.834;9.194;2024-03-25T14:35:59;22.90;27.30
3067;DHT22;1544;48.834;9.194;2024-03-25T14:38:34;23.00;27.10
3067;DHT22;1544;48.834;9.194;2024-03-25T14:41:12;23.00;25.90
3067;DHT22;1544;48.834;9.194;2024-03-25T14:43:47;23.20;26.40
3067;DHT22;1544;48.834;9.194;2024-03-25T14:46:23;23.20;26.40
3067;DHT22;1544;48.834;9.194;2024-03-25T14:48:58;23.20;26.60
3067;DHT22;1544;48.834;9.194;2024-03-25T14:51:33;23.10;23.70
3067;DHT22;1544;48.834;9.194;2024-03-25T14:54:08;23.00;25.40
3067;DHT22;1544;48.834;9.194;2024-03-25T14:56:43;22.90;25.90
3067;DHT22;1544;48.834;9.194;2024-03-25T14:59:18;22.90;25.90
3067;DHT22;1544;48.834;9.194;2024-03-25T15:01:59;22.90;26.00
3067;DHT22;1544;48.834;9.194;2024-03-25T15:04:35;22.90;22.90
3067;DHT22;1544;48.834;9.194;2024-03-25T15:07:11;22.80;24.00
3067;DHT22;1544;48.834;9.194;2024-03-25T15:09:46;22.90;24.90
3067;DHT22;1544;48.834;9.194;2024-03-25T15:12:22;22.90;23.60
3067;DHT22;1544;48.834;9.194;2024-03-25T15:14:58;22.80;23.70
3067;DHT22;1544;48.834;9.194;2024-03-25T15:17:34;22.70;23.00
3067;DHT22;1544;48.834;9.194;2024-03-25T15:20:09;22.70;25.10
3067;DHT22;1544;48.834;9.194;2024-03-25T15:22:44;22.80;24.60
3067;DHT22;1544;48.834;9.194;2024-03-25T15:25:20;22.70;23.40
3067;DHT22;1544;48.834;9.194;2024-03-25T15:27:55;22.70;26.30
3067;DHT22;1544;48.834;9.194;2024-03-25T15:30:30;22.80;25.30
3067;DHT22;1544;48.834;9.194;2024-03-25T15:33:05;22.70;24.60
3067;DHT22;1544;48.834;9.194;2024-03-25T15:35:40;22.70;25.20
3067;DHT22;1544;48.834;9.194;2024-03-25T15:38:16;22.70;25.50
3067;DHT22;1544;48.834;9.194;2024-03-25T15:40:51;22.60;24.30
3067;DHT22;1544;48.834;9.194;2024-03-25T15:43:27;22.70;24.30
3067;DHT22;1544;48.834;9.194;2024-03-25T15:46:02;22.60;25.30
3067;DHT22;1544;48.834;9.194;2024-03-25T15:48:38;22.60;23.70
3067;DHT22;1544;48.834;9.194;2024-03-25T15:51:13;22.50;24.90
3067;DHT22;1544;48.834;9.194;2024-03-25T15:53:48;22.40;22.60
3067;DHT22;1544;48.834;9.194;2024-03-25T15:56:23;22.40;23.90
3067;DHT22;1544;48.834;9.194;2024-03-25T15:58:58;22.30;24.80
3067;DHT22;1544;48.834;9.194;2024-03-25T16:01:33;22.40;25.00
3067;DHT22;1544;48.834;9.194;2024-03-25T16:04:08;22.30;22.90
3067;DHT22;1544;48.834;9.194;2024-03-25T16:06:43;22.20;23.70
3067;DHT22;1544;48.834;9.194;2024-03-25T16:09:18;22.20;22.70
3067;DHT22;1544;48.834;9.194;2024-03-25T16:11:56;22.20;23.00
3067;DHT22;1544;48.834;9.194;2024-03-25T16:14:34;22.20;23.80
3067;DHT22;1544;48.834;9.194;2024-03-25T16:17:10;22.20;23.90
3067;DHT22;1544;48.834;9.194;2024-03-25T16:19:45;22.10;23.30
3067;DHT22;1544;48.834;9.194;2024-03-25T16:22:24;22.10;23.90
3067;DHT22;1544;48.834;9.194;2024-03-25T16:25:00;22.10;23.20
3067;DHT22;1544;48.834;9.194;2024-03-25T16:27:35;22.00;24.00
3067;DHT22;1544;48.834;9.194;2024-03-25T16:30:10;21.90;23.40
3067;DHT22;1544;48.834;9.194;2024-03-25T16:32:46;21.80;22.70
3067;DHT22;1544;48.834;9.194;2024-03-25T16:35:21;21.70;23.30
3067;DHT22;1544;48.834;9.194;2024-03-25T16:37:56;21.50;23.10
3067;DHT22;1544;48.834;9.194;2024-03-25T16:40:33;21.40;22.30
3067;DHT22;1544;48.834;9.194;2024-03-25T16:43:07;21.30;23.50
3067;DHT22;1544;48.834;9.194;2024-03-25T16:45:42;21.20;23.10
3067;DHT22;1544;48.834;9.194;2024-03-25T16:48:17;21.20;23.10
3067;DHT22;1544;48.834;9.194;2024-03-25T16:50:52;21.10;23.00
3067;DHT22;1544;48.834;9.194;2024-03-25T16:53:27;20.90;23.00
3067;DHT22;1544;48.834;9.194;2024-03-25T16:56:03;20.70;22.70
3067;DHT22;1544;48.834;9.194;2024-03-25T16:58:40;20.40;22.70
3067;DHT22;1544;48.834;9.194;2024-03-25T17:01:15;20.10;22.80
3067;DHT22;1544;48.834;9.194;2024-03-25T17:03:50;19.80;22.30
3067;DHT22;1544;48.834;9.194;2024-03-25T17:06:25;19.50;23.10
3067;DHT22;1544;48.834;9.194;2024-03-25T17:09:00;19.20;23.20